sensor_id;sensor_type;location;lat;lon;timestamp;P1;durP1;ratioP1;P2;durP2;ratioP2
43690;SDS011;29293;52.190;21.226;2023-07-13T00:08:30;23.00;;;17.60;;
43690;SDS011;29293;52.190;21.226;2023-07-13T00:23:41;20.60;;;18.30;;
43690;SDS011;29293;52.190;21.226;2023-07-13T00:38:49;21.80;;;18.60;;
43690;SDS011;29293;52.190;21.226;2023-07-13T00:53:57;20.70;;;17.80;;
43690;SDS011;29293;52.190;21.226;2023-07-13T01:09:08;20.20;;;16.50;;
43690;SDS011;29293;52.190;21.226;2023-07-13T01:24:16;22.90;;;17.30;;
43690;SDS011;29293;52.190;21.226;2023-07-13T01:39:24;18.90;;;16.00;;
43690;SDS011;29293;52.190;21.226;2023-07-13T01:54:31;17.30;;;15.30;;
43690;SDS011;29293;52.190;21.226;2023-07-13T02:09:39;20.60;;;16.40;;
43690;SDS011;29293;52.190;21.226;2023-07-13T02:24:47;17.90;;;15.50;;
43690;SDS011;29293;52.190;21.226;2023-07-13T02:39:54;21.00;;;16.20;;
43690;SDS011;29293;52.190;21.226;2023-07-13T02:55:02;19.10;;;15.90;;
43690;SDS011;29293;52.190;21.226;2023-07-13T03:10:09;17.20;;;14.50;;
43690;SDS011;29293;52.190;21.226;2023-07-13T03:25:17;18.30;;;14.80;;
43690;SDS011;29293;52.190;21.226;2023-07-13T03:40:25;18.10;;;15.70;;
43690;SDS011;29293;52.190;21.226;2023-07-13T03:55:32;20.00;;;14.10;;
43690;SDS011;29293;52.190;21.226;2023-07-13T04:10:39;19.30;;;13.70;;
43690;SDS011;29293;52.190;21.226;2023-07-13T04:25:46;17.20;;;13.10;;
43690;SDS011;29293;52.190;21.226;2023-07-13T04:40:56;14.10;;;12.60;;
43690;SDS011;29293;52.190;21.226;2023-07-13T04:56:05;17.50;;;13.20;;
43690;SDS011;29293;52.190;21.226;2023-07-13T05:11:12;23.00;;;16.90;;
43690;SDS011;29293;52.190;21.226;2023-07-13T05:26:19;21.70;;;17.10;;
43690;SDS011;29293;52.190;21.226;2023-07-13T05:41:26;19.60;;;15.10;;
43690;SDS011;29293;52.190;21.226;2023-07-13T05:56:33;22.50;;;19.50;;
43690;SDS011;29293;52.190;21.226;2023-07-13T06:11:40;23.70;;;20.20;;
43690;SDS011;29293;52.190;21.226;2023-07-13T06:27:16;19.90;;;16.60;;
43690;SDS011;29293;52.190;21.226;2023-07-13T07:00:20;10.90;;;8.40;;
43690;SDS011;29293;52.190;21.226;2023-07-13T07:16:01;9.20;;;6.40;;
43690;SDS011;29293;52.190;21.226;2023-07-13T07:49:25;9.20;;;5.50;;
43690;SDS011;29293;52.190;21.226;2023-07-13T08:04:33;9.80;;;5.60;;
43690;SDS011;29293;52.190;21.226;2023-07-13T08:19:40;10.70;;;7.60;;
43690;SDS011;29293;52.190;21.226;2023-07-13T08:34:47;11.80;;;8.70;;
43690;SDS011;29293;52.190;21.226;2023-07-13T08:49:53;7.10;;;5.50;;
43690;SDS011;29293;52.190;21.226;2023-07-13T09:05:03;7.70;;;6.30;;
43690;SDS011;29293;52.190;21.226;2023-07-13T09:20:17;8.70;;;6.60;;
43690;SDS011;29293;52.190;21.226;2023-07-13T09:35:29;7.90;;;6.10;;
43690;SDS011;29293;52.190;21.226;2023-07-13T09:50:36;9.10;;;6.50;;
43690;SDS011;29293;52.190;21.226;2023-07-13T10:05:46;6.00;;;3.60;;
43690;SDS011;29293;52.190;21.226;2023-07-13T10:20:58;4.70;;;3.40;;
43690;SDS011;29293;52.190;21.226;2023-07-13T10:36:17;6.90;;;3.00;;
43690;SDS011;29293;52.190;21.226;2023-07-13T10:51:32;4.70;;;3.30;;
43690;SDS011;29293;52.190;21.226;2023-07-13T11:06:41;5.20;;;3.20;;
43690;SDS011;29293;52.190;21.226;2023-07-13T11:22:02;5.90;;;2.90;;
43690;SDS011;29293;52.190;21.226;2023-07-13T11:37:16;5.60;;;3.40;;
43690;SDS011;29293;52.190;21.226;2023-07-13T12:07:33;9.40;;;5.00;;
43690;SDS011;29293;52.190;21.226;2023-07-13T12:22:42;7.90;;;5.40;;
43690;SDS011;29293;52.190;21.226;2023-07-13T12:37:52;9.70;;;5.90;;
43690;SDS011;29293;52.190;21.226;2023-07-13T12:53:02;11.80;;;5.60;;
43690;SDS011;29293;52.190;21.226;2023-07-13T13:08:11;9.30;;;6.50;;
43690;SDS011;29293;52.190;21.226;2023-07-13T13:23:19;9.90;;;6.80;;
43690;SDS011;29293;52.190;21.226;2023-07-13T13:53:33;14.40;;;9.40;;
43690;SDS011;29293;52.190;21.226;2023-07-13T14:08:40;15.50;;;11.10;;
43690;SDS011;29293;52.190;21.226;2023-07-13T14:23:47;14.60;;;10.00;;
43690;SDS011;29293;52.190;21.226;2023-07-13T14:38:55;11.20;;;9.20;;
43690;SDS011;29293;52.190;21.226;2023-07-13T14:54:04;13.00;;;10.20;;
43690;SDS011;29293;52.190;21.226;2023-07-13T15:09:13;13.40;;;9.90;;
43690;SDS011;29293;52.190;21.226;2023-07-13T15:24:20;10.60;;;9.30;;
43690;SDS011;29293;52.190;21.226;2023-07-13T15:39:27;10.20;;;8.50;;
43690;SDS011;29293;52.190;21.226;2023-07-13T15:54:35;13.20;;;8.90;;
43690;SDS011;29293;52.190;21.226;2023-07-13T16:09:43;12.60;;;9.10;;
43690;SDS011;29293;52.190;21.226;2023-07-13T16:24:52;10.80;;;8.80;;
43690;SDS011;29293;52.190;21.226;2023-07-13T16:40:01;11.50;;;9.10;;
43690;SDS011;29293;52.190;21.226;2023-07-13T16:55:17;12.10;;;8.30;;
43690;SDS011;29293;52.190;21.226;2023-07-13T17:10:31;10.20;;;8.80;;
43690;SDS011;29293;52.190;21.226;2023-07-13T17:25:38;10.80;;;9.10;;
43690;SDS011;29293;52.190;21.226;2023-07-13T17:40:45;11.50;;;9.10;;
43690;SDS011;29293;52.190;21.226;2023-07-13T17:55:53;11.20;;;9.10;;
43690;SDS011;29293;52.190;21.226;2023-07-13T18:11:01;14.60;;;9.60;;
43690;SDS011;29293;52.190;21.226;2023-07-13T18:26:10;11.90;;;10.00;;
43690;SDS011;29293;52.190;21.226;2023-07-13T18:41:20;11.30;;;9.80;;
43690;SDS011;29293;52.190;21.226;2023-07-13T19:11:32;15.20;;;11.10;;
43690;SDS011;29293;52.190;21.226;2023-07-13T19:26:39;16.60;;;10.90;;
43690;SDS011;29293;52.190;21.226;2023-07-13T19:41:46;17.70;;;11.80;;
43690;SDS011;29293;52.190;21.226;2023-07-13T19:56:53;12.70;;;11.30;;
43690;SDS011;29293;52.190;21.226;2023-07-13T20:12:00;14.00;;;12.00;;
43690;SDS011;29293;52.190;21.226;2023-07-13T20:27:09;14.20;;;10.50;;
43690;SDS011;29293;52.190;21.226;2023-07-13T20:42:16;16.20;;;11.10;;
43690;SDS011;29293;52.190;21.226;2023-07-13T20:57:23;16.90;;;11.40;;
43690;SDS011;29293;52.190;21.226;2023-07-13T21:12:30;15.50;;;12.30;;
43690;SDS011;29293;52.190;21.226;2023-07-13T21:27:36;13.70;;;11.00;;
43690;SDS011;29293;52.190;21.226;2023-07-13T21:42:44;14.10;;;10.60;;
43690;SDS011;29293;52.190;21.226;2023-07-13T21:57:53;19.80;;;11.30;;
43690;SDS011;29293;52.190;21.226;2023-07-13T22:13:02;17.40;;;11.20;;
43690;SDS011;29293;52.190;21.226;2023-07-13T22:28:10;15.80;;;10.80;;
43690;SDS011;29293;52.190;21.226;2023-07-13T22:43:20;16.60;;;10.70;;
43690;SDS011;29293;52.190;21.226;2023-07-13T22:58:29;16.40;;;9.80;;
43690;SDS011;29293;52.190;21.226;2023-07-13T23:13:35;13.90;;;10.20;;
43690;SDS011;29293;52.190;21.226;2023-07-13T23:28:42;14.80;;;11.10;;
43690;SDS011;29293;52.190;21.226;2023-07-13T23:43:50;15.30;;;10.60;;
43690;SDS011;29293;52.190;21.226;2023-07-13T23:58:58;14.70;;;12.30;;
